»·PEaware :: DAL2189 KPDX-KSLC

DAL2189 :: KPDX-KSLC

FLIGHT INFORMATION

Flight Status: Arrived
Operator:
Delta Air Lines
More flights by this operator :: More flights under this callsign
Pilot: Joe P. (13940)
Aircraft: BOEING 737-700
(B737)
More flights by this aircraft type
Origin: KPDX Portland Intl
United States
Destination: KSLC Salt Lake City Intl
United States
More flights between these airports :: More routes between these airports
Route: WHAMY4 IMB J15 BOI BYI SKEES5
File this flight plan on PilotEdge
Remarks: KTWF -PBN / A1B1C1D1L1O1S1 NAV / RNVD1E2A1 DOF / 180814 REG / N389DA EET / KZLC0031 RVR / 200 PER / C
Altitude:
(Current/Filed)
350ft
Speed:
(Current/Filed)
456kts
Departed: 14-Aug-18 07:54 AM
Arrived: 14-Aug-18 09:19 AM
Distance/Time
Traveled:
546nm/1:25
Distance/Time
To Go:
Arrived

Flight Plot

Page will automatically refresh every two minutes.

Flight plan parsing failed; only flown route is shown


Map Options




Map Legend


Flown Route
Filed Route
Departure Airport
Arrival Airport
Navaid (VOR, NDB)
Fix

Horizontal Profiles

Position Reports

Time Latitude Longitude Heading Altitude Ground
Speed
14-Aug-18 06:59 45.591277 -122.594136 203 26ft 0kts
14-Aug-18 07:00 45.591277 -122.594136 203 26ft 0kts
14-Aug-18 07:01 45.591277 -122.594136 203 26ft 0kts
14-Aug-18 07:02 45.591277 -122.594136 203 26ft 0kts
14-Aug-18 07:03 45.591277 -122.594136 203 26ft 0kts
14-Aug-18 07:04 45.591277 -122.594136 203 26ft 0kts
14-Aug-18 07:05 45.591277 -122.594136 203 26ft 0kts
14-Aug-18 07:06 45.591277 -122.594136 203 26ft 0kts
14-Aug-18 07:07 45.591277 -122.594136 203 26ft 0kts
14-Aug-18 07:08 45.591277 -122.594136 203 26ft 0kts
14-Aug-18 07:09 45.591277 -122.594136 203 26ft 0kts
14-Aug-18 07:10 45.591277 -122.594136 203 26ft 0kts
14-Aug-18 07:11 45.591277 -122.594136 203 26ft 0kts
14-Aug-18 07:12 45.591277 -122.594136 203 26ft 0kts
14-Aug-18 07:13 45.591277 -122.594136 203 26ft 0kts
14-Aug-18 07:14 45.591277 -122.594136 203 26ft 0kts
14-Aug-18 07:15 45.591277 -122.594136 203 26ft 0kts
14-Aug-18 07:16 45.591277 -122.594136 203 26ft 0kts
14-Aug-18 07:17 45.591277 -122.594136 203 26ft 0kts
14-Aug-18 07:18 45.591277 -122.594136 203 26ft 0kts
14-Aug-18 07:19 45.591277 -122.594136 203 26ft 0kts
14-Aug-18 07:20 45.591277 -122.594136 203 26ft 0kts
14-Aug-18 07:21 45.591277 -122.594136 203 26ft 0kts
14-Aug-18 07:22 45.591277 -122.594136 203 26ft 0kts
14-Aug-18 07:23 45.591277 -122.594136 203 26ft 0kts
14-Aug-18 07:24 45.591277 -122.594136 203 26ft 0kts
14-Aug-18 07:25 45.591277 -122.594136 203 26ft 0kts
14-Aug-18 07:26 45.591277 -122.594136 203 26ft 0kts
14-Aug-18 07:27 45.591277 -122.594136 203 26ft 0kts
14-Aug-18 07:28 45.591277 -122.594136 203 26ft 0kts
14-Aug-18 07:29 45.591277 -122.594136 203 26ft 0kts
14-Aug-18 07:30 45.591277 -122.594136 203 26ft 0kts
14-Aug-18 07:31 45.591277 -122.594136 203 26ft 0kts
14-Aug-18 07:32 45.591277 -122.594136 203 26ft 0kts
14-Aug-18 07:33 45.591277 -122.594136 203 26ft 0kts
14-Aug-18 07:34 45.591277 -122.594136 203 26ft 0kts
14-Aug-18 07:35 45.591277 -122.594136 203 26ft 0kts
14-Aug-18 07:36 45.591277 -122.594136 203 26ft 0kts
14-Aug-18 07:37 45.591277 -122.594136 203 26ft 0kts
14-Aug-18 07:38 45.591277 -122.594136 203 26ft 0kts
14-Aug-18 07:39 45.591277 -122.594136 203 26ft 0kts
14-Aug-18 07:40 45.591277 -122.594136 203 26ft 0kts
14-Aug-18 07:41 45.591277 -122.594136 203 26ft 0kts
14-Aug-18 07:42 45.591277 -122.594136 203 26ft 0kts
14-Aug-18 07:43 45.591277 -122.594136 203 26ft 0kts
14-Aug-18 07:44 45.591766 -122.593941 168 26ft 2kts
14-Aug-18 07:45 45.592050 -122.594403 118 26ft 0kts
14-Aug-18 07:46 45.592050 -122.594403 118 26ft 0kts
14-Aug-18 07:47 45.592050 -122.594402 118 26ft 0kts
14-Aug-18 07:48 45.592049 -122.594400 118 26ft 0kts
14-Aug-18 07:49 45.591680 -122.590722 116 26ft 16kts
14-Aug-18 07:50 45.588906 -122.583662 118 26ft 20kts
14-Aug-18 07:51 45.586206 -122.576758 118 26ft 19kts
14-Aug-18 07:52 45.583615 -122.570016 118 26ft 12kts
14-Aug-18 07:53 45.583570 -122.569156 48 26ft 0kts
14-Aug-18 07:54 45.584338 -122.568759 297 26ft 2kts
14-Aug-18 07:55 45.591140 -122.586283 298 160ft 158kts
14-Aug-18 07:56 45.607669 -122.639229 293 3323ft 168kts
14-Aug-18 07:57 45.635776 -122.718427 301 4931ft 267kts
14-Aug-18 07:58 45.668621 -122.821321 269 6983ft 297kts
14-Aug-18 07:59 45.633823 -122.918783 199 7317ft 290kts
14-Aug-18 08:00 45.556627 -122.897999 147 10793ft 297kts
14-Aug-18 08:01 45.508787 -122.786254 115 12419ft 367kts
14-Aug-18 08:02 45.466174 -122.650763 114 14903ft 381kts
14-Aug-18 08:03 45.422862 -122.513072 114 15001ft 381kts
14-Aug-18 08:04 45.379945 -122.375266 114 15006ft 381kts
14-Aug-18 08:05 45.336097 -122.235071 114 17549ft 392kts
14-Aug-18 08:06 45.290477 -122.091864 114 20001ft 404kts
14-Aug-18 08:07 45.244215 -121.943857 111 22155ft 417kts
14-Aug-18 08:08 45.204350 -121.786982 110 24067ft 428kts
14-Aug-18 08:09 45.162857 -121.625724 110 25714ft 441kts
14-Aug-18 08:10 45.120227 -121.460897 110 27202ft 452kts
14-Aug-18 08:11 45.076433 -121.291746 110 28523ft 463kts
14-Aug-18 08:12 45.031136 -121.119188 111 29800ft 471kts
14-Aug-18 08:13 44.985408 -120.946551 111 31456ft 468kts
14-Aug-18 08:14 44.939708 -120.775355 111 32969ft 466kts
14-Aug-18 08:15 44.893839 -120.604778 111 34359ft 465kts
14-Aug-18 08:16 44.847355 -120.433128 112 35100ft 471kts
14-Aug-18 08:17 44.800627 -120.261791 112 35108ft 469kts
14-Aug-18 08:18 44.753461 -120.089218 112 35113ft 473kts
14-Aug-18 08:19 44.705701 -119.916369 113 35119ft 476kts
14-Aug-18 08:20 44.657222 -119.743116 113 35127ft 476kts
14-Aug-18 08:21 44.607189 -119.570660 114 35137ft 477kts
14-Aug-18 08:22 44.556413 -119.398814 114 35147ft 477kts
14-Aug-18 08:23 44.505756 -119.227826 113 35153ft 476kts
14-Aug-18 08:24 44.455266 -119.056402 114 35159ft 476kts
14-Aug-18 08:25 44.404194 -118.885178 114 35159ft 477kts
14-Aug-18 08:26 44.352685 -118.713964 114 35158ft 479kts
14-Aug-18 08:27 44.300517 -118.541804 114 35156ft 483kts
14-Aug-18 08:28 44.256664 -118.398010 114 35153ft 486kts
14-Aug-18 08:29 44.194360 -118.195100 115 35147ft 489kts
14-Aug-18 08:30 44.140477 -118.020895 115 35140ft 490kts
14-Aug-18 08:31 44.095306 -117.875751 115 35132ft 491kts
14-Aug-18 08:32 44.040782 -117.701630 115 35118ft 490kts
14-Aug-18 08:33 43.977202 -117.500015 115 35096ft 491kts
14-Aug-18 08:34 43.931357 -117.355622 115 35086ft 491kts
14-Aug-18 08:35 43.875891 -117.181965 116 35083ft 491kts
14-Aug-18 08:36 43.820381 -117.009302 116 35082ft 491kts
14-Aug-18 08:37 43.764433 -116.836392 116 35083ft 493kts
14-Aug-18 08:38 43.708148 -116.663570 116 35081ft 493kts
14-Aug-18 08:39 43.651711 -116.490391 116 35074ft 494kts
14-Aug-18 08:40 43.594666 -116.317971 116 35077ft 495kts
14-Aug-18 08:41 43.535664 -116.146564 121 35081ft 493kts
14-Aug-18 08:42 43.468332 -115.982508 121 35087ft 493kts
14-Aug-18 08:43 43.400793 -115.817685 121 35098ft 493kts
14-Aug-18 08:44 43.334004 -115.653339 121 35105ft 493kts
14-Aug-18 08:45 43.266849 -115.489227 121 35110ft 492kts
14-Aug-18 08:46 43.199613 -115.326153 122 35118ft 492kts
14-Aug-18 08:47 43.132000 -115.163171 122 35127ft 491kts
14-Aug-18 08:48 43.064312 -115.000938 122 35140ft 491kts
14-Aug-18 08:49 42.996322 -114.838876 122 35154ft 491kts
14-Aug-18 08:50 42.927978 -114.676891 122 35156ft 491kts
14-Aug-18 08:51 42.859821 -114.516226 122 35152ft 490kts
14-Aug-18 08:52 42.795422 -114.365208 123 35149ft 433kts
14-Aug-18 08:53 42.734922 -114.223704 122 35151ft 434kts
14-Aug-18 08:54 42.674177 -114.082248 123 35147ft 432kts
14-Aug-18 08:55 42.613119 -113.941588 123 35142ft 432kts
14-Aug-18 08:56 42.541587 -113.812834 139 35140ft 425kts
14-Aug-18 08:57 42.457108 -113.700291 139 35108ft 434kts
14-Aug-18 08:58 42.367933 -113.581586 139 35141ft 465kts
14-Aug-18 08:59 42.273134 -113.455806 139 35038ft 480kts
14-Aug-18 09:00 42.181720 -113.335233 139 32566ft 462kts
14-Aug-18 09:01 42.089790 -113.214507 139 29548ft 452kts
14-Aug-18 09:02 42.000870 -113.097699 138 27484ft 441kts
14-Aug-18 09:03 41.914076 -112.983816 137 25429ft 431kts
14-Aug-18 09:04 41.828812 -112.872577 137 23383ft 423kts
14-Aug-18 09:05 41.744639 -112.763674 138 21343ft 417kts
14-Aug-18 09:06 41.661868 -112.656749 138 19314ft 410kts
14-Aug-18 09:07 41.580325 -112.551924 138 17282ft 405kts
14-Aug-18 09:08 41.496336 -112.456070 146 15654ft 382kts
14-Aug-18 09:09 41.423163 -112.358628 133 14653ft 367kts
14-Aug-18 09:10 41.354519 -112.256664 133 13713ft 367kts
14-Aug-18 09:11 41.281524 -112.164439 142 12421ft 353kts
14-Aug-18 09:12 41.209415 -112.086621 142 11114ft 313kts
14-Aug-18 09:13 41.145236 -112.018866 142 9902ft 282kts
14-Aug-18 09:14 41.074792 -112.008555 195 8411ft 263kts
14-Aug-18 09:15 41.012087 -112.024279 172 8010ft 212kts
14-Aug-18 09:16 40.959938 -112.016938 174 7175ft 172kts
14-Aug-18 09:17 40.913019 -112.011430 175 6279ft 168kts
14-Aug-18 09:18 40.866825 -112.006068 174 5393ft 162kts
14-Aug-18 09:19 40.821285 -112.000800 177 4485ft 166kts
14-Aug-18 09:20 40.791396 -111.996056 104 4235ft 0kts
14-Aug-18 09:21 40.791396 -111.996054 104 4235ft 0kts
14-Aug-18 09:22 40.791395 -111.996052 104 4235ft 0kts
14-Aug-18 09:23 40.791471 -111.995643 64 4235ft 8kts
14-Aug-18 09:24 40.791246 -111.992517 110 4235ft 9kts
14-Aug-18 09:25 40.791339 -111.989430 87 4235ft 8kts
14-Aug-18 09:26 40.790877 -111.986234 179 4235ft 11kts
14-Aug-18 09:27 40.789396 -111.986021 146 4235ft 6kts
14-Aug-18 09:28 40.789075 -111.985532 130 4235ft 0kts
14-Aug-18 09:29 40.789075 -111.985532 130 4235ft 0kts
14-Aug-18 09:30 40.789075 -111.985532 130 4235ft 0kts
14-Aug-18 09:31 40.789075 -111.985532 130 4235ft 0kts
14-Aug-18 09:32 40.789075 -111.985532 130 4235ft 0kts
14-Aug-18 09:33 40.789075 -111.985532 130 4235ft 0kts
14-Aug-18 09:34 40.789075 -111.985532 130 4235ft 0kts

Navigation Log

Ident Type
Flight plan parsing failed, navigation log unavailable